Time;durP1;ratioP1;P1;durP2;ratioP2;P2;SDS_P1;SDS_P2;PMS_P1;PMS_P2;Temp;Humidity;BMP_temperature;BMP_pressure;BME280_temperature;BME280_humidity;BME280_pressure;Samples;Min_cycle;Max_cycle;Signal;HPM_P1;HPM_P2
2023/07/25 00:01:38;;;;;;;;;;;15.10;99.90;;;;;;7318893;19;9261;-84
2023/07/25 00:04:09;;;;;;;;;;;15.00;99.90;;;;;;7320510;19;8944;-85
2023/07/25 00:06:38;;;;;;;;;;;14.70;99.90;;;;;;7320022;19;9264;-84
2023/07/25 00:09:07;;;;;;;;;;;14.50;99.90;;;;;;7318656;19;9329;-85
2023/07/25 00:11:36;;;;;;;;;;;14.40;99.90;;;;;;7316471;19;9173;-84
2023/07/25 00:14:05;;;;;;;;;;;14.40;99.90;;;;;;7318634;19;9199;-85
2023/07/25 00:16:34;;;;;;;;;;;14.50;99.90;;;;;;7317444;19;9573;-84
2023/07/25 00:19:03;;;;;;;;;;;14.50;99.90;;;;;;7320793;19;11301;-84
2023/07/25 00:21:35;;;;;;;;;;;14.50;99.90;;;;;;7320332;19;9468;-84
2023/07/25 00:24:04;;;;;;;;;;;14.60;99.90;;;;;;7319912;19;10691;-85
2023/07/25 00:26:33;;;;;;;;;;;14.80;99.90;;;;;;7318917;19;9490;-84
2023/07/25 00:29:01;;;;;;;;;;;14.80;99.90;;;;;;7322345;19;9459;-84
2023/07/25 00:31:30;;;;;;;;;;;14.70;99.90;;;;;;7326123;19;9148;-84
2023/07/25 00:33:59;;;;;;;;;;;14.50;99.90;;;;;;7326329;19;9162;-84
2023/07/25 00:36:28;;;;;;;;;;;14.30;99.90;;;;;;7325454;19;9202;-84
2023/07/25 00:39:00;;;;;;;;;;;14.30;99.90;;;;;;7326170;19;9144;-84
2023/07/25 00:41:29;;;;;;;;;;;14.30;99.90;;;;;;7325347;19;9201;-85
2023/07/25 00:43:58;;;;;;;;;;;14.10;99.90;;;;;;7328221;19;9247;-84
2023/07/25 00:46:27;;;;;;;;;;;14.10;99.90;;;;;;7332182;19;9251;-85
2023/07/25 00:48:56;;;;;;;;;;;14.00;99.90;;;;;;7328075;19;9248;-84
2023/07/25 00:51:25;;;;;;;;;;;14.10;99.90;;;;;;7323619;19;10185;-85
2023/07/25 00:53:55;;;;;;;;;;;14.10;99.90;;;;;;7325426;19;13135;-84
2023/07/25 00:56:28;;;;;;;;;;;14.00;99.90;;;;;;7322028;19;9248;-85
2023/07/25 00:58:57;;;;;;;;;;;14.00;99.90;;;;;;7325317;19;9252;-84
2023/07/25 01:01:28;;;;;;;;;;;14.10;99.90;;;;;;7323779;19;9048;-84
2023/07/25 01:03:58;;;;;;;;;;;14.10;99.90;;;;;;7326813;19;9598;-85
2023/07/25 01:06:27;;;;;;;;;;;14.00;99.90;;;;;;7325437;19;9248;-84
2023/07/25 01:08:57;;;;;;;;;;;13.80;99.90;;;;;;7323838;19;10634;-84
2023/07/25 01:11:29;;;;;;;;;;;13.80;99.90;;;;;;7324935;19;9143;-84
2023/07/25 01:13:58;;;;;;;;;;;13.70;99.90;;;;;;7326360;19;9613;-84
2023/07/25 01:16:29;;;;;;;;;;;13.70;99.90;;;;;;7322828;19;9318;-85
2023/07/25 01:19:00;;;;;;;;;;;13.70;99.90;;;;;;7326675;19;10218;-84
2023/07/25 01:21:30;;;;;;;;;;;13.60;99.90;;;;;;7324374;19;9532;-84
2023/07/25 01:24:05;;;;;;;;;;;13.70;99.90;;;;;;7326249;19;9213;-84
2023/07/25 01:26:34;;;;;;;;;;;13.60;99.90;;;;;;7324551;19;10235;-84
2023/07/25 01:29:03;;;;;;;;;;;13.70;99.90;;;;;;7325618;19;9311;-84
2023/07/25 01:31:32;;;;;;;;;;;13.60;99.90;;;;;;7324543;19;9246;-85
2023/07/25 01:34:01;;;;;;;;;;;13.60;99.90;;;;;;7324791;19;9373;-85
2023/07/25 01:36:30;;;;;;;;;;;13.70;99.90;;;;;;7323007;19;9218;-85
2023/07/25 01:38:59;;;;;;;;;;;13.60;99.90;;;;;;7323142;19;9583;-85
2023/07/25 01:41:30;;;;;;;;;;;13.50;99.90;;;;;;7322227;19;11069;-84
2023/07/25 01:43:59;;;;;;;;;;;13.40;99.90;;;;;;7323567;19;9205;-84
2023/07/25 01:46:28;;;;;;;;;;;13.40;99.90;;;;;;7323647;19;9382;-84
2023/07/25 01:48:57;;;;;;;;;;;13.30;99.90;;;;;;7320294;19;9224;-85
2023/07/25 01:51:26;;;;;;;;;;;13.10;99.90;;;;;;7323939;19;9261;-84
2023/07/25 01:53:58;;;;;;;;;;;13.00;99.90;;;;;;7323185;19;10248;-84
2023/07/25 01:56:30;;;;;;;;;;;12.90;99.90;;;;;;7320916;19;9265;-84
2023/07/25 01:58:59;;;;;;;;;;;12.80;99.90;;;;;;7323170;19;9261;-84
2023/07/25 02:01:29;;;;;;;;;;;12.70;99.90;;;;;;7323340;19;9403;-85
2023/07/25 02:03:58;;;;;;;;;;;12.70;99.90;;;;;;7323395;19;9226;-84
2023/07/25 02:06:27;;;;;;;;;;;12.70;99.90;;;;;;7323795;19;9225;-84
2023/07/25 02:08:56;;;;;;;;;;;12.70;99.90;;;;;;7323984;19;9341;-84
2023/07/25 02:11:24;;;;;;;;;;;12.60;99.90;;;;;;7322121;19;9371;-84
2023/07/25 02:13:56;;;;;;;;;;;12.60;99.90;;;;;;7324317;19;9405;-84
2023/07/25 02:16:25;;;;;;;;;;;12.70;99.90;;;;;;7320750;19;9337;-84
2023/07/25 02:18:54;;;;;;;;;;;12.70;99.90;;;;;;7322093;19;9640;-84
2023/07/25 02:21:23;;;;;;;;;;;12.80;99.90;;;;;;7322171;19;9460;-84
2023/07/25 02:23:52;;;;;;;;;;;12.80;99.90;;;;;;7323675;19;9242;-85
2023/07/25 02:26:20;;;;;;;;;;;12.80;99.90;;;;;;7321970;19;9378;-84
2023/07/25 02:28:49;;;;;;;;;;;12.80;99.90;;;;;;7322588;19;10843;-84
2023/07/25 02:31:21;;;;;;;;;;;12.80;99.90;;;;;;7322194;19;10455;-84
2023/07/25 02:33:50;;;;;;;;;;;12.80;99.90;;;;;;7323441;19;9252;-84
2023/07/25 02:36:19;;;;;;;;;;;12.80;99.90;;;;;;7320125;19;9322;-84
2023/07/25 02:38:47;;;;;;;;;;;12.80;99.90;;;;;;7321353;19;9664;-84
2023/07/25 02:41:16;;;;;;;;;;;12.80;99.90;;;;;;7320238;19;10147;-84
2023/07/25 02:43:45;;;;;;;;;;;12.90;99.90;;;;;;7322720;19;9516;-84
2023/07/25 02:46:14;;;;;;;;;;;12.90;99.90;;;;;;7318579;19;9485;-84
2023/07/25 02:48:46;;;;;;;;;;;12.90;99.90;;;;;;7323839;19;9548;-84
2023/07/25 02:51:15;;;;;;;;;;;13.00;99.90;;;;;;7323188;19;9162;-84
2023/07/25 02:53:44;;;;;;;;;;;13.10;99.90;;;;;;7322356;19;9249;-83
2023/07/25 02:56:14;;;;;;;;;;;13.20;99.90;;;;;;7324356;19;9682;-84
2023/07/25 02:58:43;;;;;;;;;;;13.30;99.90;;;;;;7324613;19;9282;-85
2023/07/25 03:01:12;;;;;;;;;;;13.30;99.90;;;;;;7322611;19;9269;-85
2023/07/25 03:03:41;;;;;;;;;;;13.50;99.90;;;;;;7322004;19;10199;-85
2023/07/25 03:06:13;;;;;;;;;;;13.70;99.90;;;;;;7321408;19;9135;-85
2023/07/25 03:08:42;;;;;;;;;;;13.80;99.90;;;;;;7319879;19;9253;-85
2023/07/25 03:11:11;;;;;;;;;;;13.80;99.90;;;;;;7315931;19;9137;-84
2023/07/25 03:13:43;;;;;;;;;;;13.80;99.90;;;;;;7313411;19;10473;-85
2023/07/25 03:16:12;;;;;;;;;;;13.70;99.90;;;;;;7303884;19;9544;-85
2023/07/25 03:18:41;;;;;;;;;;;13.60;99.90;;;;;;7294512;19;12893;-85
2023/07/25 03:21:13;;;;;;;;;;;13.60;99.90;;;;;;7293577;19;10817;-85
2023/07/25 03:23:41;;;;;;;;;;;13.70;99.90;;;;;;7318161;19;10637;-85
2023/07/25 03:26:10;;;;;;;;;;;13.80;99.90;;;;;;7318789;19;9246;-85
2023/07/25 03:28:39;;;;;;;;;;;13.80;99.90;;;;;;7314769;19;9277;-85
2023/07/25 03:31:09;;;;;;;;;;;13.80;99.90;;;;;;7309751;19;9360;-85
2023/07/25 03:33:38;;;;;;;;;;;13.60;99.90;;;;;;7301340;19;9657;-85
2023/07/25 03:36:08;;;;;;;;;;;13.60;99.90;;;;;;7288312;19;9686;-85
2023/07/25 03:38:39;;;;;;;;;;;13.60;99.90;;;;;;7313012;19;9272;-85
2023/07/25 03:41:08;;;;;;;;;;;13.50;99.90;;;;;;7318693;19;9197;-84
2023/07/25 03:43:38;;;;;;;;;;;13.50;99.90;;;;;;7321507;19;8944;-85
2023/07/25 03:46:07;;;;;;;;;;;13.50;99.90;;;;;;7306036;19;9795;-85
2023/07/25 03:48:35;;;;;;;;;;;13.50;99.90;;;;;;7320242;19;9482;-85
2023/07/25 03:51:05;;;;;;;;;;;13.50;99.90;;;;;;7318643;19;9285;-85
2023/07/25 03:53:33;;;;;;;;;;;13.50;99.90;;;;;;7315359;19;9510;-84
2023/07/25 03:56:07;;;;;;;;;;;13.60;99.90;;;;;;7318451;19;9195;-85
2023/07/25 03:58:36;;;;;;;;;;;13.70;99.90;;;;;;7309281;19;9344;-85
2023/07/25 04:01:05;;;;;;;;;;;13.70;99.90;;;;;;7309316;19;11198;-84
2023/07/25 04:03:34;;;;;;;;;;;13.70;99.90;;;;;;7315899;19;9124;-84
2023/07/25 04:06:03;;;;;;;;;;;13.90;99.90;;;;;;7317800;19;9545;-84
2023/07/25 04:08:32;;;;;;;;;;;13.90;99.90;;;;;;7325728;19;9279;-84
2023/07/25 04:11:01;;;;;;;;;;;14.10;99.90;;;;;;7326961;19;9570;-85
2023/07/25 04:13:32;;;;;;;;;;;14.10;99.90;;;;;;7326610;19;9451;-84
2023/07/25 04:16:01;;;;;;;;;;;14.20;99.90;;;;;;7325189;19;9351;-85
2023/07/25 04:18:30;;;;;;;;;;;14.20;99.90;;;;;;7327662;19;9220;-84
2023/07/25 04:20:59;;;;;;;;;;;14.30;99.90;;;;;;7327124;19;9514;-84
2023/07/25 04:23:28;;;;;;;;;;;14.40;99.90;;;;;;7328238;19;10422;-84
2023/07/25 04:25:57;;;;;;;;;;;14.40;99.90;;;;;;7328252;19;9257;-84
2023/07/25 04:28:26;;;;;;;;;;;14.40;99.90;;;;;;7326730;19;9294;-84
2023/07/25 04:30:58;;;;;;;;;;;14.40;99.90;;;;;;7326231;19;9241;-85
2023/07/25 04:33:27;;;;;;;;;;;14.40;99.90;;;;;;7328919;19;9629;-84
2023/07/25 04:35:56;;;;;;;;;;;14.40;99.90;;;;;;7327466;19;9381;-85
2023/07/25 04:38:25;;;;;;;;;;;14.40;99.90;;;;;;7325421;19;9329;-84
2023/07/25 04:40:56;;;;;;;;;;;14.30;99.90;;;;;;7328880;19;8944;-84
2023/07/25 04:43:24;;;;;;;;;;;14.30;99.90;;;;;;7326475;19;9249;-85
2023/07/25 04:45:53;;;;;;;;;;;14.20;99.90;;;;;;7330158;19;10658;-84
2023/07/25 04:48:25;;;;;;;;;;;14.30;99.90;;;;;;7332844;19;9255;-84
2023/07/25 04:50:54;;;;;;;;;;;14.30;99.90;;;;;;7331844;19;9249;-85
2023/07/25 04:53:23;;;;;;;;;;;14.30;99.90;;;;;;7326018;19;9284;-85
2023/07/25 04:55:52;;;;;;;;;;;14.30;99.90;;;;;;7327981;19;9245;-84
2023/07/25 04:58:21;;;;;;;;;;;14.20;99.90;;;;;;7324017;19;9266;-85
2023/07/25 05:00:50;;;;;;;;;;;14.30;99.90;;;;;;7326400;19;8944;-85
2023/07/25 05:03:20;;;;;;;;;;;14.30;99.90;;;;;;7323678;19;9456;-84
2023/07/25 05:05:54;;;;;;;;;;;14.30;99.90;;;;;;7324754;19;9271;-84
2023/07/25 05:08:23;;;;;;;;;;;14.40;99.90;;;;;;7343344;19;9126;-84
2023/07/25 05:10:53;;;;;;;;;;;14.50;99.90;;;;;;7339819;19;9182;-84
2023/07/25 05:13:23;;;;;;;;;;;14.50;99.90;;;;;;7323932;19;9179;-84
2023/07/25 05:15:52;;;;;;;;;;;14.50;99.90;;;;;;7323663;19;9407;-84
2023/07/25 05:18:21;;;;;;;;;;;14.50;99.90;;;;;;7325953;19;8944;-84
2023/07/25 05:20:52;;;;;;;;;;;14.50;99.90;;;;;;7322751;19;9289;-85
2023/07/25 05:23:21;;;;;;;;;;;14.50;99.90;;;;;;7324609;19;9476;-84
2023/07/25 05:25:50;;;;;;;;;;;14.60;99.90;;;;;;7325281;19;9252;-84
2023/07/25 05:28:20;;;;;;;;;;;14.60;99.90;;;;;;7323253;19;8945;-85
2023/07/25 05:30:49;;;;;;;;;;;14.70;99.90;;;;;;7322551;19;9245;-85
2023/07/25 05:33:18;;;;;;;;;;;14.70;99.90;;;;;;7323905;19;9209;-84
2023/07/25 05:35:47;;;;;;;;;;;14.70;99.90;;;;;;7323740;19;9461;-84
2023/07/25 05:38:18;;;;;;;;;;;14.80;99.90;;;;;;7323640;19;9463;-84
2023/07/25 05:40:50;;;;;;;;;;;14.80;99.90;;;;;;7321830;19;9412;-84
2023/07/25 05:43:19;;;;;;;;;;;14.70;99.90;;;;;;7325455;19;9225;-84
2023/07/25 05:45:48;;;;;;;;;;;14.80;99.90;;;;;;7323473;19;9249;-85
2023/07/25 05:48:17;;;;;;;;;;;14.90;99.90;;;;;;7322474;19;9269;-84
2023/07/25 05:50:46;;;;;;;;;;;15.10;99.90;;;;;;7308648;19;9656;-85
2023/07/25 05:53:14;;;;;;;;;;;15.20;99.90;;;;;;7314591;19;9362;-85
2023/07/25 05:55:49;;;;;;;;;;;15.30;99.90;;;;;;7317205;19;9185;-84
2023/07/25 05:58:20;;;;;;;;;;;15.40;99.90;;;;;;7317170;19;9214;-84
2023/07/25 06:00:51;;;;;;;;;;;15.40;99.90;;;;;;7320241;19;9464;-84
2023/07/25 06:03:21;;;;;;;;;;;15.50;99.90;;;;;;7323002;19;9265;-81
2023/07/25 06:05:50;;;;;;;;;;;15.50;99.90;;;;;;7321433;19;9237;-79
2023/07/25 06:08:19;;;;;;;;;;;15.50;99.90;;;;;;7320229;19;9223;-83
2023/07/25 06:10:51;;;;;;;;;;;15.60;99.90;;;;;;7320808;19;9133;-77
2023/07/25 06:13:20;;;;;;;;;;;15.80;99.90;;;;;;7316417;19;8993;-86
2023/07/25 06:15:49;;;;;;;;;;;16.20;99.90;;;;;;7312789;19;9456;-86
2023/07/25 06:18:18;;;;;;;;;;;16.30;99.90;;;;;;7319032;19;10169;-87
2023/07/25 06:20:49;;;;;;;;;;;16.20;99.90;;;;;;7321732;19;9122;-83
2023/07/25 06:23:19;;;;;;;;;;;16.40;99.90;;;;;;7321565;19;9586;-83
2023/07/25 06:25:51;;;;;;;;;;;16.50;99.90;;;;;;7322677;19;9249;-83
2023/07/25 06:28:20;;;;;;;;;;;16.70;99.90;;;;;;7320982;19;11782;-84
2023/07/25 06:30:49;;;;;;;;;;;16.90;99.90;;;;;;7323221;19;8944;-83
2023/07/25 06:33:18;;;;;;;;;;;16.80;99.90;;;;;;7320894;19;9241;-83
2023/07/25 06:35:47;;;;;;;;;;;16.80;99.90;;;;;;7316851;19;9265;-83
2023/07/25 06:38:16;;;;;;;;;;;16.70;99.90;;;;;;7318070;19;9237;-83
2023/07/25 06:40:45;;;;;;;;;;;16.80;99.90;;;;;;7322542;19;9273;-83
2023/07/25 06:43:17;;;;;;;;;;;17.00;99.90;;;;;;7320808;19;9334;-83
2023/07/25 06:45:45;;;;;;;;;;;17.00;99.90;;;;;;7322111;19;9261;-83
2023/07/25 06:48:14;;;;;;;;;;;17.40;99.90;;;;;;7320335;19;9524;-83
2023/07/25 06:50:44;;;;;;;;;;;17.00;99.90;;;;;;7317322;19;9132;-82
2023/07/25 06:53:13;;;;;;;;;;;17.30;99.90;;;;;;7314906;19;9265;-83
2023/07/25 06:55:42;;;;;;;;;;;17.40;99.90;;;;;;7320383;19;9241;-83
2023/07/25 06:58:11;;;;;;;;;;;17.60;99.90;;;;;;7315527;19;9420;-83
2023/07/25 07:01:03;;;;;;;;;;;17.70;99.90;;;;;;7316957;19;9346;-83
2023/07/25 07:03:36;;;;;;;;;;;17.30;99.90;;;;;;7316461;19;9417;-83
2023/07/25 07:06:05;;;;;;;;;;;17.10;99.90;;;;;;7321124;19;9559;-83
2023/07/25 07:08:33;;;;;;;;;;;17.60;99.90;;;;;;7314230;19;9257;-83
2023/07/25 07:11:02;;;;;;;;;;;17.30;99.90;;;;;;7320411;19;9268;-83
2023/07/25 07:13:31;;;;;;;;;;;17.30;99.90;;;;;;7317953;19;9257;-83
2023/07/25 07:16:03;;;;;;;;;;;17.50;99.90;;;;;;7317882;19;9658;-82
2023/07/25 07:18:32;;;;;;;;;;;17.50;99.90;;;;;;7321156;19;9427;-83
2023/07/25 07:21:01;;;;;;;;;;;17.80;99.90;;;;;;7321354;19;10557;-84
2023/07/25 07:23:30;;;;;;;;;;;17.90;99.90;;;;;;7318761;19;9249;-82
2023/07/25 07:25:59;;;;;;;;;;;18.30;99.90;;;;;;7321287;19;9246;-83
2023/07/25 07:28:28;;;;;;;;;;;18.90;99.90;;;;;;7320918;19;9245;-83
2023/07/25 07:30:56;;;;;;;;;;;19.60;99.90;;;;;;7319274;19;9560;-83
2023/07/25 07:33:28;;;;;;;;;;;20.00;99.90;;;;;;7320679;19;9599;-83
2023/07/25 07:35:57;;;;;;;;;;;19.60;98.40;;;;;;7318985;19;9237;-83
2023/07/25 07:38:26;;;;;;;;;;;18.50;93.80;;;;;;7315215;19;9355;-83
2023/07/25 07:40:55;;;;;;;;;;;18.70;96.10;;;;;;7327227;19;9254;-83
2023/07/25 07:43:24;;;;;;;;;;;18.60;94.60;;;;;;7324314;19;9264;-83
2023/07/25 07:45:53;;;;;;;;;;;18.60;94.30;;;;;;7327788;19;9302;-82
2023/07/25 07:48:22;;;;;;;;;;;18.50;93.00;;;;;;7321279;19;9913;-83
2023/07/25 07:50:54;;;;;;;;;;;18.40;94.90;;;;;;7324818;19;9262;-83
2023/07/25 07:53:22;;;;;;;;;;;18.40;94.90;;;;;;7328979;19;9233;-83
2023/07/25 07:55:51;;;;;;;;;;;18.30;95.10;;;;;;7325494;19;10709;-82
2023/07/25 07:58:20;;;;;;;;;;;18.40;97.50;;;;;;7320460;19;9431;-82
2023/07/25 08:00:49;;;;;;;;;;;18.30;99.90;;;;;;7324917;19;9248;-82
2023/07/25 08:03:18;;;;;;;;;;;18.30;98.40;;;;;;7319213;19;10415;-83
2023/07/25 08:05:57;;;;;;;;;;;17.40;94.40;;;;;;7320166;19;10496;-83
2023/07/25 08:08:29;;;;;;;;;;;17.70;96.60;;;;;;7326577;19;9249;-83
2023/07/25 08:10:58;;;;;;;;;;;18.00;97.80;;;;;;7321436;19;9281;-82
2023/07/25 08:13:27;;;;;;;;;;;18.50;98.00;;;;;;7322894;19;9309;-83
2023/07/25 08:15:56;;;;;;;;;;;18.70;93.50;;;;;;7325758;19;10818;-82
2023/07/25 08:18:25;;;;;;;;;;;19.20;96.70;;;;;;7322890;19;9294;-83
2023/07/25 08:20:58;;;;;;;;;;;19.30;94.70;;;;;;7323665;19;9122;-81
2023/07/25 08:23:30;;;;;;;;;;;19.10;85.90;;;;;;7320547;19;9483;-83
2023/07/25 08:26:00;;;;;;;;;;;18.30;78.70;;;;;;7318312;19;9508;-82
2023/07/25 08:28:29;;;;;;;;;;;18.10;81.10;;;;;;7317908;19;9470;-82
2023/07/25 08:31:02;;;;;;;;;;;18.40;83.10;;;;;;7319832;19;9507;-82
2023/07/25 08:33:34;;;;;;;;;;;19.10;99.90;;;;;;7326318;19;9511;-82
2023/07/25 08:36:03;;;;;;;;;;;19.50;97.50;;;;;;7323398;19;10109;-82
2023/07/25 08:38:35;;;;;;;;;;;20.00;88.40;;;;;;7322678;19;9354;-82
2023/07/25 08:41:11;;;;;;;;;;;19.70;77.40;;;;;;7322968;19;9254;-82
2023/07/25 08:43:42;;;;;;;;;;;19.50;88.40;;;;;;7324777;19;8944;-82
2023/07/25 08:46:13;;;;;;;;;;;19.70;83.40;;;;;;7326018;19;9265;-82
2023/07/25 08:48:44;;;;;;;;;;;20.00;82.10;;;;;;7325296;19;9242;-82
2023/07/25 08:51:37;;;;;;;;;;;20.50;92.40;;;;;;7322841;19;10587;-82
2023/07/25 08:54:17;;;;;;;;;;;20.50;88.50;;;;;;7322948;19;9167;-82
2023/07/25 08:56:48;;;;;;;;;;;20.80;95.80;;;;;;7326016;19;9232;-82
2023/07/25 08:59:17;;;;;;;;;;;20.00;75.80;;;;;;7322114;19;9276;-83
2023/07/25 09:01:46;;;;;;;;;;;19.30;81.80;;;;;;7325208;19;9241;-83
2023/07/25 09:04:16;;;;;;;;;;;19.30;86.80;;;;;;7325666;19;10150;-82
2023/07/25 09:06:46;;;;;;;;;;;19.10;88.50;;;;;;7323627;19;9294;-82
2023/07/25 09:09:17;;;;;;;;;;;19.50;93.90;;;;;;7322986;19;10558;-83
2023/07/25 09:11:47;;;;;;;;;;;19.70;84.10;;;;;;7326818;19;9404;-83
2023/07/25 09:14:16;;;;;;;;;;;19.60;86.00;;;;;;7319263;19;9499;-83
2023/07/25 09:16:45;;;;;;;;;;;19.50;83.40;;;;;;7321874;19;9197;-83
2023/07/25 09:19:15;;;;;;;;;;;18.90;81.20;;;;;;7320561;19;10375;-83
2023/07/25 09:21:56;;;;;;;;;;;18.90;89.50;;;;;;7320738;19;9249;-82
2023/07/25 09:24:37;;;;;;;;;;;18.80;94.20;;;;;;7321573;19;9088;-82
2023/07/25 09:27:16;;;;;;;;;;;18.90;98.60;;;;;;7320034;19;9239;-82
2023/07/25 09:29:46;;;;;;;;;;;19.10;95.00;;;;;;7323813;19;9118;-82
2023/07/25 09:32:23;;;;;;;;;;;19.00;83.70;;;;;;7321848;19;9193;-82
2023/07/25 09:34:59;;;;;;;;;;;18.80;85.00;;;;;;7323534;19;10428;-82
2023/07/25 09:37:30;;;;;;;;;;;19.30;96.30;;;;;;7319599;19;9572;-83
2023/07/25 09:40:02;;;;;;;;;;;19.40;85.60;;;;;;7323458;19;10032;-82
2023/07/25 09:42:31;;;;;;;;;;;19.20;85.10;;;;;;7322709;19;9426;-81
2023/07/25 09:45:00;;;;;;;;;;;19.80;98.20;;;;;;7324425;19;9256;-83
2023/07/25 09:47:30;;;;;;;;;;;19.90;79.90;;;;;;7324188;19;9071;-83
2023/07/25 09:49:59;;;;;;;;;;;19.80;72.90;;;;;;7323675;19;9218;-82
2023/07/25 09:52:41;;;;;;;;;;;19.10;73.10;;;;;;7321696;19;9158;-82
2023/07/25 09:55:13;;;;;;;;;;;18.70;71.20;;;;;;7322467;19;9249;-83
2023/07/25 09:57:43;;;;;;;;;;;18.80;73.80;;;;;;7319401;19;9244;-82
2023/07/25 10:00:13;;;;;;;;;;;19.20;86.70;;;;;;7313035;19;10208;-84
2023/07/25 10:02:44;;;;;;;;;;;19.50;81.50;;;;;;7321013;19;8944;-83
2023/07/25 10:05:13;;;;;;;;;;;19.00;76.50;;;;;;7323201;19;9128;-85
2023/07/25 10:07:45;;;;;;;;;;;18.90;77.40;;;;;;7323116;19;11243;-86
2023/07/25 10:10:17;;;;;;;;;;;19.00;74.90;;;;;;7324336;19;9195;-84
2023/07/25 10:12:46;;;;;;;;;;;19.10;73.30;;;;;;7323217;19;9410;-87
2023/07/25 10:15:16;;;;;;;;;;;19.70;88.80;;;;;;7324351;19;9269;-83
2023/07/25 10:17:46;;;;;;;;;;;20.10;79.40;;;;;;7322472;19;9233;-86
2023/07/25 10:20:24;;;;;;;;;;;20.40;74.20;;;;;;7323407;19;9367;-87
2023/07/25 10:22:53;;;;;;;;;;;20.70;79.00;;;;;;7321486;19;9277;-89
2023/07/25 10:25:31;;;;;;;;;;;20.90;84.10;;;;;;7323874;19;9474;-78
2023/07/25 10:28:01;;;;;;;;;;;20.60;74.20;;;;;;7322559;19;10401;-78
2023/07/25 10:30:32;;;;;;;;;;;20.50;73.50;;;;;;7322602;19;9510;-78
2023/07/25 10:33:04;;;;;;;;;;;20.50;72.00;;;;;;7319391;19;10710;-78
2023/07/25 10:35:43;;;;;;;;;;;20.90;77.10;;;;;;7322043;19;9477;-82
2023/07/25 10:38:15;;;;;;;;;;;21.00;81.20;;;;;;7321982;19;10457;-79
2023/07/25 10:40:57;;;;;;;;;;;20.30;75.60;;;;;;7319869;19;10343;-83
2023/07/25 10:43:30;;;;;;;;;;;20.20;84.10;;;;;;7322656;19;9210;-83
2023/07/25 10:46:04;;;;;;;;;;;19.80;84.10;;;;;;7323139;19;9766;-83
2023/07/25 10:48:38;;;;;;;;;;;19.70;83.70;;;;;;7322351;19;9178;-83
2023/07/25 10:51:09;;;;;;;;;;;19.70;83.40;;;;;;7318633;19;9141;-84
2023/07/25 10:53:38;;;;;;;;;;;19.40;82.50;;;;;;7323168;19;9486;-83
2023/07/25 10:56:17;;;;;;;;;;;18.90;80.00;;;;;;7321729;19;9454;-84
2023/07/25 10:59:06;;;;;;;;;;;19.00;82.30;;;;;;7319658;19;9572;-84
2023/07/25 11:01:43;;;;;;;;;;;18.80;80.30;;;;;;7323012;19;10159;-83
2023/07/25 11:04:29;;;;;;;;;;;18.80;80.10;;;;;;7321424;19;9245;-84
2023/07/25 11:06:59;;;;;;;;;;;19.00;79.10;;;;;;7322532;19;9261;-85
2023/07/25 11:09:30;;;;;;;;;;;19.50;84.20;;;;;;7319085;19;9281;-85
2023/07/25 11:12:01;;;;;;;;;;;20.10;89.20;;;;;;7323329;19;9283;-84
2023/07/25 11:14:31;;;;;;;;;;;20.60;86.90;;;;;;7320361;19;10380;-86
2023/07/25 11:17:00;;;;;;;;;;;20.60;76.90;;;;;;7321124;19;9403;-84
2023/07/25 11:19:30;;;;;;;;;;;20.50;85.50;;;;;;7315074;19;9243;-84
2023/07/25 11:21:59;;;;;;;;;;;19.40;74.50;;;;;;7319797;19;9225;-75
2023/07/25 11:24:28;;;;;;;;;;;19.50;81.60;;;;;;7315778;19;9262;-84
2023/07/25 11:26:57;;;;;;;;;;;19.00;75.40;;;;;;7313406;19;9339;-80
2023/07/25 11:29:29;;;;;;;;;;;19.10;75.50;;;;;;7317736;19;10164;-81
2023/07/25 11:32:04;;;;;;;;;;;19.40;76.50;;;;;;7314024;19;10513;-80
2023/07/25 11:34:33;;;;;;;;;;;19.70;77.20;;;;;;7307279;19;9660;-82
2023/07/25 11:37:02;;;;;;;;;;;19.80;76.40;;;;;;7316792;19;9246;-81
2023/07/25 11:39:31;;;;;;;;;;;19.90;73.00;;;;;;7317222;19;9297;-81
2023/07/25 11:42:00;;;;;;;;;;;19.90;73.50;;;;;;7323170;19;9462;-81
2023/07/25 11:44:31;;;;;;;;;;;20.50;77.40;;;;;;7321057;19;9290;-80
2023/07/25 11:47:02;;;;;;;;;;;20.90;79.70;;;;;;7321444;19;9249;-80
2023/07/25 11:49:31;;;;;;;;;;;20.20;67.80;;;;;;7320110;19;9397;-82
2023/07/25 11:52:00;;;;;;;;;;;20.50;70.00;;;;;;7320055;19;9486;-81
2023/07/25 11:54:30;;;;;;;;;;;20.40;69.30;;;;;;7321561;19;9600;-81
2023/07/25 11:56:59;;;;;;;;;;;20.10;70.00;;;;;;7320231;19;9264;-81
2023/07/25 11:59:36;;;;;;;;;;;19.80;72.70;;;;;;7319503;19;9281;-81
2023/07/25 12:02:08;;;;;;;;;;;20.00;75.20;;;;;;7321306;19;9269;-81
2023/07/25 12:04:45;;;;;;;;;;;19.80;72.00;;;;;;7320645;19;10211;-82
2023/07/25 12:07:13;;;;;;;;;;;19.40;71.70;;;;;;7321965;19;9133;-81
2023/07/25 12:09:52;;;;;;;;;;;19.50;70.00;;;;;;7318764;19;9248;-81
2023/07/25 12:12:21;;;;;;;;;;;19.60;73.30;;;;;;7319977;19;8944;-81
2023/07/25 12:15:05;;;;;;;;;;;20.10;81.20;;;;;;7318668;19;9238;-81
2023/07/25 12:17:46;;;;;;;;;;;20.30;74.40;;;;;;7319325;19;9166;-80
2023/07/25 12:20:17;;;;;;;;;;;20.50;72.40;;;;;;7315796;19;9565;-81
2023/07/25 12:22:46;;;;;;;;;;;20.00;66.90;;;;;;7319625;19;9456;-80
2023/07/25 12:25:19;;;;;;;;;;;19.70;68.90;;;;;;7321814;19;9568;-81
2023/07/25 12:27:52;;;;;;;;;;;19.90;71.30;;;;;;7323536;19;9594;-81
2023/07/25 12:30:23;;;;;;;;;;;19.90;69.20;;;;;;7327703;19;9289;-81
2023/07/25 12:32:52;;;;;;;;;;;19.70;69.10;;;;;;7327936;19;11520;-81
2023/07/25 12:35:21;;;;;;;;;;;19.40;69.20;;;;;;7327432;19;9465;-81
2023/07/25 12:37:50;;;;;;;;;;;19.90;68.80;;;;;;7326967;19;9171;-81
2023/07/25 12:40:19;;;;;;;;;;;20.20;75.90;;;;;;7323973;19;9215;-80
2023/07/25 12:42:48;;;;;;;;;;;19.80;61.10;;;;;;7326692;19;9287;-80
2023/07/25 12:45:17;;;;;;;;;;;20.20;67.00;;;;;;7325868;19;9511;-80
2023/07/25 12:47:49;;;;;;;;;;;20.50;75.40;;;;;;7326915;19;9678;-81
2023/07/25 12:50:18;;;;;;;;;;;20.30;64.90;;;;;;7324028;19;9541;-80
2023/07/25 12:52:47;;;;;;;;;;;20.10;69.60;;;;;;7326355;19;11268;-81
2023/07/25 12:55:17;;;;;;;;;;;19.90;67.90;;;;;;7325749;19;9365;-81
2023/07/25 12:57:46;;;;;;;;;;;19.50;66.80;;;;;;7323325;19;9296;-81
2023/07/25 13:00:16;;;;;;;;;;;19.60;68.20;;;;;;7323717;19;9374;-81
2023/07/25 13:02:48;;;;;;;;;;;19.70;68.00;;;;;;7326071;19;8968;-81
2023/07/25 13:05:17;;;;;;;;;;;19.60;66.00;;;;;;7325784;19;10849;-81
2023/07/25 13:07:46;;;;;;;;;;;19.80;72.20;;;;;;7325888;19;9415;-81
2023/07/25 13:10:15;;;;;;;;;;;20.30;71.10;;;;;;7325209;19;9447;-81
2023/07/25 13:12:44;;;;;;;;;;;20.50;72.20;;;;;;7324384;19;9440;-81
2023/07/25 13:15:13;;;;;;;;;;;20.20;67.90;;;;;;7324964;19;9343;-81
2023/07/25 13:17:42;;;;;;;;;;;20.00;69.30;;;;;;7325202;19;10406;-80
2023/07/25 13:20:14;;;;;;;;;;;20.40;75.70;;;;;;7322677;19;9139;-81
2023/07/25 13:22:43;;;;;;;;;;;20.00;68.10;;;;;;7325724;19;9220;-81
2023/07/25 13:25:12;;;;;;;;;;;20.00;69.60;;;;;;7326121;19;9246;-81
2023/07/25 13:27:41;;;;;;;;;;;19.90;69.10;;;;;;7323023;19;9231;-81
2023/07/25 13:30:11;;;;;;;;;;;20.00;71.60;;;;;;7325021;19;9238;-81
2023/07/25 13:32:40;;;;;;;;;;;20.10;74.10;;;;;;7325827;19;9229;-81
2023/07/25 13:35:31;;;;;;;;;;;19.90;69.30;;;;;;7316022;19;9513;-80
2023/07/25 13:38:01;;;;;;;;;;;20.40;76.30;;;;;;7315020;19;10165;-81
2023/07/25 13:40:30;;;;;;;;;;;20.00;70.00;;;;;;7319584;19;9407;-82
2023/07/25 13:42:59;;;;;;;;;;;19.60;69.10;;;;;;7322314;19;9265;-81
2023/07/25 13:45:30;;;;;;;;;;;19.30;70.00;;;;;;7322384;19;9534;-82
2023/07/25 13:47:59;;;;;;;;;;;19.50;72.80;;;;;;7322522;19;9489;-82
2023/07/25 13:50:31;;;;;;;;;;;20.00;74.30;;;;;;7318562;19;9613;-82
2023/07/25 13:53:00;;;;;;;;;;;19.80;71.00;;;;;;7320746;19;9189;-82
2023/07/25 13:55:29;;;;;;;;;;;19.60;71.70;;;;;;7319496;19;9569;-82
2023/07/25 13:57:57;;;;;;;;;;;19.20;71.90;;;;;;7319708;19;9606;-85
2023/07/25 14:00:26;;;;;;;;;;;19.00;75.10;;;;;;7324039;19;9209;-86
2023/07/25 14:02:55;;;;;;;;;;;18.90;77.00;;;;;;7323351;19;9371;-87
2023/07/25 14:05:25;;;;;;;;;;;19.10;79.20;;;;;;7324867;19;9262;-86
2023/07/25 14:07:56;;;;;;;;;;;18.60;75.40;;;;;;7323374;19;9315;-87
2023/07/25 14:10:26;;;;;;;;;;;18.50;76.50;;;;;;7325430;19;9252;-85
2023/07/25 14:12:55;;;;;;;;;;;18.70;81.50;;;;;;7323072;19;9572;-88
2023/07/25 14:15:24;;;;;;;;;;;19.20;82.30;;;;;;7323651;19;9214;-88
2023/07/25 14:17:53;;;;;;;;;;;19.70;78.30;;;;;;7323595;19;9273;-88
2023/07/25 14:20:22;;;;;;;;;;;19.30;69.60;;;;;;7322070;19;9531;-86
2023/07/25 14:22:51;;;;;;;;;;;19.30;71.50;;;;;;7323501;19;9256;-89
2023/07/25 14:25:23;;;;;;;;;;;18.90;69.60;;;;;;7322114;19;9296;-82
2023/07/25 14:27:51;;;;;;;;;;;19.50;75.90;;;;;;7320278;19;9473;-80
2023/07/25 14:30:21;;;;;;;;;;;19.30;68.40;;;;;;7319734;19;9347;-82
2023/07/25 14:32:50;;;;;;;;;;;19.50;72.50;;;;;;7320347;19;9337;-82
2023/07/25 14:35:19;;;;;;;;;;;19.90;75.30;;;;;;7324332;19;9820;-81
2023/07/25 14:37:48;;;;;;;;;;;20.40;76.80;;;;;;7314324;19;9253;-84
2023/07/25 14:40:17;;;;;;;;;;;20.70;71.30;;;;;;7321128;19;9584;-81
2023/07/25 14:42:49;;;;;;;;;;;20.50;69.00;;;;;;7321212;19;9304;-84
2023/07/25 14:45:18;;;;;;;;;;;20.60;72.10;;;;;;7323796;19;9261;-83
2023/07/25 14:47:47;;;;;;;;;;;21.00;72.00;;;;;;7320043;19;9197;-82